createdAt,value
2022-12-24T00:01:18.527Z,81.98
2022-12-24T00:04:22.357Z,82.00
2022-12-24T00:07:25.232Z,80.36
2022-12-24T00:10:30.530Z,80.81
2022-12-24T00:13:33.700Z,81.51
2022-12-24T00:16:37.709Z,79.82
2022-12-24T00:19:41.798Z,81.69
2022-12-24T00:22:44.483Z,81.74
2022-12-24T00:25:50.292Z,81.83
2022-12-24T00:28:53.371Z,82.88
2022-12-24T00:31:57.235Z,81.30
2022-12-24T00:35:01.916Z,82.51
2022-12-24T00:38:04.909Z,81.14
2022-12-24T00:41:26.155Z,82.54
2022-12-24T00:44:29.203Z,81.43
2022-12-24T00:47:33.437Z,81.25
2022-12-24T00:50:37.448Z,81.34
2022-12-24T00:53:40.445Z,80.91
2022-12-24T00:56:45.714Z,80.95
2022-12-24T00:59:48.419Z,80.67
2022-12-24T01:02:52.423Z,81.25
2022-12-24T01:05:56.369Z,81.53
2022-12-24T01:08:59.124Z,80.85
2022-12-24T01:12:04.575Z,80.99
2022-12-24T01:15:08.597Z,81.32
2022-12-24T01:18:12.458Z,80.42
2022-12-24T01:21:16.343Z,81.05
2022-12-24T01:24:20.346Z,80.74
2022-12-24T01:27:25.796Z,81.24
2022-12-24T01:30:28.483Z,80.06
2022-12-24T01:33:32.691Z,80.17
2022-12-24T01:36:36.862Z,81.59
2022-12-24T01:39:39.825Z,79.82
2022-12-24T01:43:07.402Z,80.55
2022-12-24T01:46:18.199Z,80.75
2022-12-24T01:49:23.087Z,80.51
2022-12-24T01:52:30.947Z,81.17
2022-12-24T01:55:33.715Z,82.08
2022-12-24T01:58:40.202Z,80.96
2022-12-24T02:01:43.090Z,80.71
2022-12-24T02:04:54.930Z,80.35
2022-12-24T02:07:59.552Z,80.25
2022-12-24T02:11:02.298Z,81.35
2022-12-24T02:14:07.820Z,80.91
2022-12-24T02:17:18.499Z,80.64
2022-12-24T02:20:49.023Z,81.38
2022-12-24T02:24:25.082Z,80.77
2022-12-24T02:27:38.444Z,79.99
2022-12-24T02:30:47.820Z,79.35
2022-12-24T02:33:55.970Z,80.24
2022-12-24T02:37:05.467Z,81.86
2022-12-24T02:40:16.537Z,80.58
2022-12-24T02:46:49.005Z,81.05
2022-12-24T02:49:51.931Z,81.03
2022-12-24T02:52:56.063Z,80.08
2022-12-24T02:56:20.189Z,80.40
2022-12-24T02:59:52.773Z,80.62
2022-12-24T03:03:14.849Z,80.89
2022-12-24T03:06:28.594Z,80.92
2022-12-24T03:09:37.829Z,80.75
2022-12-24T03:12:45.187Z,81.39
2022-12-24T03:15:49.474Z,81.81
2022-12-24T03:18:57.279Z,81.94
2022-12-24T03:22:01.944Z,82.29
2022-12-24T03:25:06.585Z,81.66
2022-12-24T03:28:12.750Z,81.79
2022-12-24T03:31:16.210Z,81.82
2022-12-24T03:34:22.303Z,81.70
2022-12-24T03:37:26.667Z,82.10
2022-12-24T03:40:30.676Z,82.12
2022-12-24T03:43:35.051Z,81.57
2022-12-24T03:46:38.028Z,81.36
2022-12-24T03:49:43.359Z,81.34
2022-12-24T03:52:46.169Z,81.49
2022-12-24T03:55:50.309Z,80.55
2022-12-24T03:58:54.705Z,82.17
2022-12-24T04:01:57.506Z,80.08
2022-12-24T04:05:02.990Z,80.03
2022-12-24T04:08:05.864Z,79.39
2022-12-24T04:11:12.251Z,80.17
2022-12-24T04:14:16.212Z,79.63
2022-12-24T04:17:19.280Z,79.62
2022-12-24T04:20:24.518Z,80.53
2022-12-24T04:23:27.522Z,79.69
2022-12-24T04:26:31.468Z,80.04
2022-12-24T04:29:35.367Z,79.63
2022-12-24T04:32:38.113Z,80.17
2022-12-24T04:35:43.864Z,80.61
2022-12-24T04:38:47.183Z,81.28
2022-12-24T04:41:51.090Z,80.92
2022-12-24T04:44:54.963Z,81.22
2022-12-24T04:47:57.694Z,81.04
2022-12-24T04:51:05.339Z,81.93
2022-12-24T04:54:09.218Z,80.82
2022-12-24T04:57:16.771Z,81.69
2022-12-24T05:00:21.035Z,79.70
2022-12-24T05:03:39.026Z,80.10
2022-12-24T05:06:46.935Z,80.78
2022-12-24T05:09:54.268Z,79.73
2022-12-24T05:12:59.995Z,80.54
2022-12-24T05:16:08.154Z,80.36
2022-12-24T05:19:11.845Z,80.72
2022-12-24T05:22:34.722Z,79.73
2022-12-24T05:29:22.999Z,80.58
2022-12-24T05:32:27.604Z,79.79
2022-12-24T05:35:31.409Z,79.58
2022-12-24T05:38:44.380Z,78.80
2022-12-24T05:41:49.799Z,79.81
2022-12-24T05:48:27.593Z,78.98
2022-12-24T05:51:33.663Z,79.66
2022-12-24T05:54:39.029Z,79.63
2022-12-24T05:57:44.439Z,80.26
2022-12-24T06:00:51.262Z,80.36
2022-12-24T06:07:21.614Z,79.69
2022-12-24T06:10:26.909Z,80.02
2022-12-24T06:13:37.722Z,77.41
2022-12-24T06:16:42.538Z,78.94
2022-12-24T06:19:45.447Z,78.73
2022-12-24T06:22:49.338Z,78.22
2022-12-24T06:25:53.621Z,79.75
2022-12-24T06:28:57.459Z,79.67
2022-12-24T06:32:01.351Z,79.69
2022-12-24T06:35:04.388Z,79.93
2022-12-24T06:38:08.385Z,80.39
2022-12-24T06:41:12.514Z,80.20
2022-12-24T06:44:16.555Z,79.37
2022-12-24T06:47:19.318Z,79.68
2022-12-24T06:50:22.058Z,80.62
2022-12-24T06:53:25.955Z,80.69
2022-12-24T06:56:30.283Z,80.25
2022-12-24T06:59:34.234Z,81.59
2022-12-24T07:02:38.187Z,81.17
2022-12-24T07:05:42.078Z,81.14
2022-12-24T07:08:45.985Z,80.99
2022-12-24T07:11:50.077Z,81.91
2022-12-24T07:14:53.959Z,81.45
2022-12-24T07:17:57.820Z,81.44
2022-12-24T07:21:02.090Z,81.91
2022-12-24T07:24:12.764Z,82.38
2022-12-24T07:27:17.815Z,82.37
2022-12-24T07:30:22.623Z,82.38
2022-12-24T07:33:26.344Z,82.59
2022-12-24T07:36:30.043Z,81.97
2022-12-24T07:39:33.566Z,81.13
2022-12-24T07:42:43.989Z,81.92
2022-12-24T07:45:51.389Z,82.37
2022-12-24T07:48:56.700Z,81.65
2022-12-24T07:52:02.856Z,82.22
2022-12-24T07:55:06.735Z,81.99
2022-12-24T07:58:14.629Z,82.22
2022-12-24T08:01:18.074Z,82.12
2022-12-24T08:04:21.518Z,81.43
2022-12-24T08:07:25.361Z,82.87
2022-12-24T08:10:28.970Z,82.46
2022-12-24T08:13:34.804Z,82.38
2022-12-24T08:16:44.016Z,82.75
2022-12-24T08:19:48.782Z,82.29
2022-12-24T08:22:52.060Z,81.93
2022-12-24T08:25:56.523Z,81.88
2022-12-24T08:29:01.479Z,82.34
2022-12-24T08:32:05.138Z,82.00
2022-12-24T08:35:09.725Z,81.78
2022-12-24T08:38:17.225Z,82.11
2022-12-24T08:41:21.734Z,82.11
2022-12-24T08:44:31.781Z,81.47
2022-12-24T08:47:38.929Z,82.41
2022-12-24T08:50:47.044Z,82.00
2022-12-24T08:53:50.911Z,80.80
2022-12-24T08:56:55.600Z,81.68
2022-12-24T09:00:00.362Z,82.63
2022-12-24T09:03:05.360Z,82.47
2022-12-24T09:06:10.023Z,82.13
2022-12-24T09:09:13.107Z,82.04
2022-12-24T09:12:17.803Z,81.76
2022-12-24T09:15:22.302Z,82.49
2022-12-24T09:18:27.023Z,80.83
2022-12-24T09:21:29.761Z,79.58
2022-12-24T09:24:32.937Z,80.70
2022-12-24T09:27:35.848Z,81.26
2022-12-24T09:30:40.017Z,82.55
2022-12-24T09:33:45.223Z,81.98
2022-12-24T09:36:49.146Z,81.83
2022-12-24T09:39:51.938Z,81.98
2022-12-24T09:42:57.557Z,81.69
2022-12-24T09:46:10.775Z,82.17
2022-12-24T09:52:44.297Z,81.89
2022-12-24T09:55:50.279Z,82.30
2022-12-24T09:58:59.602Z,81.38
2022-12-24T10:02:04.046Z,81.64
2022-12-24T10:05:16.376Z,82.00
2022-12-24T10:08:29.052Z,81.38
2022-12-24T10:11:44.560Z,81.34
2022-12-24T10:15:01.541Z,81.76
2022-12-24T10:18:22.865Z,82.18
2022-12-24T10:21:35.866Z,82.15
2022-12-24T10:24:50.302Z,81.14
2022-12-24T10:27:57.205Z,82.09
2022-12-24T10:31:05.821Z,81.79
2022-12-24T10:34:20.988Z,81.02
2022-12-24T10:37:25.268Z,81.30
2022-12-24T10:40:46.022Z,81.23
2022-12-24T10:43:50.453Z,80.78
2022-12-24T10:46:54.437Z,80.87
2022-12-24T10:50:05.214Z,81.42
2022-12-24T10:53:17.436Z,81.16
2022-12-24T10:56:22.761Z,81.93
2022-12-24T10:59:28.810Z,82.11
2022-12-24T11:02:33.780Z,82.96
2022-12-24T11:05:39.510Z,82.25
2022-12-24T11:08:45.469Z,83.31
2022-12-24T11:11:49.554Z,82.69
2022-12-24T11:18:24.660Z,81.70
2022-12-24T11:21:31.712Z,82.36
2022-12-24T11:24:38.448Z,83.74
2022-12-24T11:27:44.579Z,83.69
2022-12-24T11:31:00.226Z,83.02
2022-12-24T11:34:20.018Z,83.17
2022-12-24T11:37:27.306Z,83.59
2022-12-24T11:40:36.035Z,83.51
2022-12-24T11:43:48.852Z,83.54
2022-12-24T11:46:56.682Z,82.59
2022-12-24T11:50:27.153Z,82.98
2022-12-24T11:53:38.029Z,82.88
2022-12-24T11:56:47.086Z,82.75
2022-12-24T11:59:52.276Z,82.80
2022-12-24T12:03:02.037Z,82.96
2022-12-24T12:06:14.151Z,82.46
2022-12-24T12:09:22.598Z,82.85
2022-12-24T12:12:29.799Z,82.54
2022-12-24T12:15:36.513Z,82.51
2022-12-24T12:18:43.729Z,83.47
2022-12-24T12:21:51.351Z,83.82
2022-12-24T12:24:58.562Z,84.31
2022-12-24T12:28:05.538Z,83.39
2022-12-24T12:31:16.981Z,83.57
2022-12-24T12:41:29.478Z,84.13
2022-12-24T12:44:52.484Z,84.10
2022-12-24T12:48:12.763Z,83.79
2022-12-24T12:51:26.389Z,83.15
2022-12-24T12:54:39.954Z,83.07
2022-12-24T12:57:52.933Z,83.24
2022-12-24T13:01:03.542Z,83.39
2022-12-24T13:04:42.832Z,83.99
2022-12-24T13:08:02.616Z,83.25
2022-12-24T13:11:27.635Z,84.16
2022-12-24T13:14:44.366Z,83.41
2022-12-24T13:18:04.065Z,83.82
2022-12-24T13:21:17.857Z,84.25
2022-12-24T13:24:27.188Z,83.46
2022-12-24T13:27:32.868Z,83.28
2022-12-24T13:30:41.165Z,84.02
2022-12-24T13:33:50.224Z,83.70
2022-12-24T13:37:21.128Z,83.25
2022-12-24T13:40:26.712Z,83.38
2022-12-24T13:44:17.326Z,83.41
2022-12-24T13:47:32.293Z,83.96
2022-12-24T13:50:40.051Z,84.23
2022-12-24T13:53:47.101Z,84.07
2022-12-24T13:56:51.675Z,83.67
2022-12-24T14:00:03.523Z,83.67
2022-12-24T14:03:20.148Z,84.53
2022-12-24T14:06:27.714Z,84.40
2022-12-24T14:09:32.809Z,84.13
2022-12-24T14:12:51.937Z,84.62
2022-12-24T14:16:06.165Z,84.77
2022-12-24T14:19:16.326Z,85.38
2022-12-24T14:22:31.143Z,85.33
2022-12-24T14:25:34.268Z,85.29
2022-12-24T14:28:44.388Z,85.14
2022-12-24T14:31:54.255Z,84.70
2022-12-24T14:35:09.020Z,85.15
2022-12-24T14:38:19.913Z,85.96
2022-12-24T14:41:37.019Z,85.80
2022-12-24T14:44:49.625Z,86.12
2022-12-24T14:48:05.245Z,86.34
2022-12-24T14:51:16.186Z,85.86
2022-12-24T14:54:36.724Z,85.78
2022-12-24T14:57:39.731Z,85.05
2022-12-24T15:00:45.829Z,85.26
2022-12-24T15:04:01.489Z,85.59
2022-12-24T15:07:08.787Z,85.23
2022-12-24T15:10:27.768Z,84.67
2022-12-24T15:13:36.944Z,84.71
2022-12-24T15:16:42.309Z,84.94
2022-12-24T15:19:52.842Z,85.75
2022-12-24T15:23:00.174Z,86.23
2022-12-24T15:26:24.030Z,86.06
2022-12-24T15:29:29.562Z,85.35
2022-12-24T15:32:37.038Z,85.42
2022-12-24T15:39:24.019Z,84.81
2022-12-24T15:42:37.182Z,84.61
2022-12-24T15:45:45.616Z,84.89
2022-12-24T15:48:51.665Z,84.71
2022-12-24T15:51:55.816Z,84.62
2022-12-24T15:54:58.687Z,84.15
2022-12-24T15:58:04.543Z,84.06
2022-12-24T16:01:28.047Z,83.65
2022-12-24T16:04:32.137Z,83.76
2022-12-24T16:08:04.675Z,84.68
2022-12-24T16:11:16.008Z,85.30
2022-12-24T16:14:21.428Z,85.23
2022-12-24T16:17:26.270Z,84.96
2022-12-24T16:23:56.484Z,84.74
2022-12-24T16:26:59.233Z,84.85
2022-12-24T16:30:04.691Z,85.77
2022-12-24T16:33:13.758Z,85.28
2022-12-24T16:36:17.661Z,85.46
2022-12-24T16:43:04.465Z,85.27
2022-12-24T16:46:10.129Z,85.52
2022-12-24T16:49:16.813Z,85.14
2022-12-24T16:52:23.281Z,84.77
2022-12-24T16:55:27.178Z,84.44
2022-12-24T16:58:30.492Z,84.12
2022-12-24T17:01:35.953Z,83.70
2022-12-24T17:04:39.518Z,83.40
2022-12-24T17:07:44.438Z,84.08
2022-12-24T17:10:52.322Z,83.55
2022-12-24T17:13:56.202Z,83.46
2022-12-24T17:17:00.328Z,83.78
2022-12-24T17:20:05.738Z,82.97
2022-12-24T17:23:09.590Z,83.13
2022-12-24T17:26:15.218Z,82.22
2022-12-24T17:29:19.272Z,82.21
2022-12-24T17:32:23.373Z,82.21
2022-12-24T17:35:26.081Z,81.97
2022-12-24T17:38:28.848Z,82.01
2022-12-24T17:41:32.730Z,82.00
2022-12-24T17:44:36.669Z,81.93
2022-12-24T17:47:41.290Z,83.17
2022-12-24T17:50:45.232Z,83.33
2022-12-24T17:53:48.179Z,83.19
2022-12-24T17:56:52.230Z,83.66
2022-12-24T17:59:56.196Z,83.92
2022-12-24T18:03:00.378Z,84.30
2022-12-24T18:06:06.125Z,84.29
2022-12-24T18:09:08.967Z,84.40
2022-12-24T18:12:12.950Z,84.96
2022-12-24T18:15:20.743Z,85.41
2022-12-24T18:18:24.809Z,85.34
2022-12-24T18:21:30.839Z,85.54
2022-12-24T18:24:33.583Z,85.92
2022-12-24T18:27:37.786Z,85.92
2022-12-24T18:30:41.687Z,85.38
2022-12-24T18:33:47.495Z,85.96
2022-12-24T18:36:55.287Z,85.97
2022-12-24T18:39:58.658Z,86.15
2022-12-24T18:43:02.682Z,87.08
2022-12-24T18:46:09.340Z,87.23
2022-12-24T18:49:13.502Z,86.87
2022-12-24T18:52:22.614Z,86.86
2022-12-24T18:55:25.641Z,87.23
2022-12-24T18:58:29.590Z,87.24
2022-12-24T19:01:35.713Z,87.17
2022-12-24T19:04:39.980Z,86.72
2022-12-24T19:07:44.024Z,87.79
2022-12-24T19:10:47.967Z,87.62
2022-12-24T19:13:53.116Z,87.05
2022-12-24T19:16:57.264Z,86.48
2022-12-24T19:20:01.468Z,87.41
2022-12-24T19:23:05.464Z,87.41
2022-12-24T19:26:08.422Z,87.67
2022-12-24T19:29:12.429Z,87.38
2022-12-24T19:32:16.444Z,86.84
2022-12-24T19:35:20.538Z,86.93
2022-12-24T19:38:24.570Z,86.63
2022-12-24T19:41:29.218Z,87.06
2022-12-24T19:44:33.366Z,86.85
2022-12-24T19:47:36.095Z,87.06
2022-12-24T19:50:41.406Z,86.22
2022-12-24T19:53:45.543Z,86.92
2022-12-24T19:56:48.263Z,86.49
2022-12-24T19:59:52.235Z,87.24
2022-12-24T20:02:56.336Z,87.08
2022-12-24T20:06:00.593Z,87.10
2022-12-24T20:09:07.131Z,86.80
2022-12-24T20:12:09.979Z,86.91
2022-12-24T20:15:14.075Z,86.21
2022-12-24T20:18:18.080Z,86.70
2022-12-24T20:21:22.540Z,86.85
2022-12-24T20:24:25.488Z,86.40
2022-12-24T20:27:28.384Z,86.97
2022-12-24T20:30:33.260Z,87.48
2022-12-24T20:33:37.586Z,87.19
2022-12-24T20:36:41.796Z,86.51
2022-12-24T20:39:45.779Z,86.52
2022-12-24T20:42:49.742Z,86.48
2022-12-24T20:45:52.944Z,87.49
2022-12-24T20:48:58.074Z,87.32
2022-12-24T20:52:02.155Z,87.03
2022-12-24T20:55:06.582Z,86.76
2022-12-24T20:58:12.180Z,86.37
2022-12-24T21:01:18.597Z,86.65
2022-12-24T21:04:23.749Z,86.89
2022-12-24T21:07:27.886Z,86.81
2022-12-24T21:10:34.433Z,86.46
2022-12-24T21:13:37.646Z,86.56
2022-12-24T21:16:41.469Z,86.94
2022-12-24T21:19:45.596Z,86.45
2022-12-24T21:22:49.670Z,86.80
2022-12-24T21:26:02.107Z,87.03
2022-12-24T21:29:07.987Z,86.54
2022-12-24T21:32:10.675Z,87.20
2022-12-24T21:35:14.794Z,87.03
2022-12-24T21:38:18.857Z,87.03
2022-12-24T21:41:25.187Z,86.46
2022-12-24T21:44:29.186Z,86.51
2022-12-24T21:47:32.016Z,86.22
2022-12-24T21:50:53.716Z,86.12
2022-12-24T21:54:18.110Z,86.27
2022-12-24T21:57:39.509Z,86.90
2022-12-24T22:04:04.091Z,86.49
2022-12-24T22:07:25.873Z,86.05
2022-12-24T22:10:47.399Z,86.63
2022-12-24T22:13:51.372Z,87.08
2022-12-24T22:16:55.360Z,86.93
2022-12-24T22:19:58.106Z,86.64
2022-12-24T22:23:02.088Z,87.04
2022-12-24T22:26:14.418Z,86.14
2022-12-24T22:29:19.149Z,86.21
2022-12-24T22:32:24.609Z,86.37
2022-12-24T22:35:27.889Z,86.35
2022-12-24T22:38:32.601Z,86.20
2022-12-24T22:41:37.158Z,86.26
2022-12-24T22:44:41.798Z,85.73
2022-12-24T22:47:45.989Z,84.98
2022-12-24T22:50:49.215Z,86.13
2022-12-24T22:53:53.821Z,85.50
2022-12-24T22:56:58.553Z,86.06
2022-12-24T23:00:03.087Z,85.62
2022-12-24T23:03:08.519Z,86.09
2022-12-24T23:06:12.675Z,86.13
2022-12-24T23:09:18.262Z,86.07
2022-12-24T23:12:44.159Z,85.76
2022-12-24T23:15:49.571Z,85.10
2022-12-24T23:18:54.712Z,85.62
2022-12-24T23:21:58.103Z,85.16
2022-12-24T23:25:02.489Z,85.22
2022-12-24T23:28:07.240Z,85.66
2022-12-24T23:31:11.780Z,85.21
2022-12-24T23:34:16.019Z,85.66
2022-12-24T23:37:19.172Z,84.57
2022-12-24T23:40:24.252Z,84.34
2022-12-24T23:43:29.161Z,84.62
2022-12-24T23:46:33.805Z,84.06
2022-12-24T23:49:38.271Z,84.93
2022-12-24T23:52:41.512Z,84.88
2022-12-24T23:55:46.493Z,85.68
2022-12-24T23:58:52.134Z,85.13
